EBBEEBFN

Guest
Details From EBBE - Beauvechain
To EBFN - KOKSIJDE
Flight Number -
Tags generated
Created
Modified
Stats Distance 83 nm / 153 km
Max Altitude 10,300 ft / 3,139 m
Waypoints 5
Social Downloads 0
Likes 0
Share VATSIM

Download

Looking for another format? Having issues loading an existing format? Contact us
Advertisement - Login to hide

Notes

Basic altitude profile: - Ascent Rate: 2500ft/min - Ascent Speed: 250kts - Cruise Altitude: 35000ft - Cruise Speed: 420kts - Descent Rate: 1500ft/min - Descent Speed: 250kts Options: - Use NATs: yes - Use PACOTS: yes - Use low airways: yes - Use high airways: yes

Route

EBBE DENOX L607 MAK EBFN

ID Type Via Altitude Latitude Longitude Leg Dist Tot Dist Heading (true) Name
O EBBE APT - 0 ft / 0 m 50.75695˚ 4.76936˚ - 0 nm - Beauvechain
DENOX FIX - 10,300 ft / 3,139 m 50.87938˚ 4.02770˚ 29 nm 29 nm 285° / 284° -
GOLEX FIX L607 (AWY-LO) 8,000 ft / 2,438 m 50.94541˚ 3.61596˚ 16 nm 45 nm 284° / 284° -
MAK NDB L607 (AWY-LO) 7,000 ft / 2,134 m 50.96472˚ 3.49611˚ 4 nm 49 nm 284° / 284° MACKEL NDB
O EBFN APT - 0 ft / 0 m 51.09022˚ 2.65293˚ 32 nm 82 nm 284° / 283° KOKSIJDE

Altitude Profile

Advertisement - Login to hide

EBBE

Details ICAO EBBE
Name Beauvechain
Region Belgium
Timezone Europe/Brussels (UTC+1.0)
Stats Elevation 341 ft / 104 m (AMSL)
Location 50.756950° 4.769359°
Runways 2
Magnetic Variation 1.217° E

METAR

EBBE 160525Z AUTO 26005KT 0650 FG VV002/// 02/02 Q1008 RED

Decode

TAF

Not found

Departure Runways

ID Width Length Bearing (true) Bearing (mag) Surface Threshold Offset Overrun Length
04L 148 ft / 45 m 9,154 ft / 2,790 m 38.81° 37.59° Asphalt 213 ft / 65 m 965 ft / 294 m
04R 75 ft / 23 m 7,599 ft / 2,316 m 38.85° 37.63° Asphalt 0 ft / 0 m 0 ft / 0 m
22L 75 ft / 23 m 7,599 ft / 2,316 m 218.86° 217.64° Asphalt 0 ft / 0 m 0 ft / 0 m
22R 148 ft / 45 m 9,154 ft / 2,790 m 218.83° 217.61° Asphalt 1,145 ft / 349 m 0 ft / 0 m

EBFN

Details ICAO EBFN
Name KOKSIJDE
Region Belgium
Timezone Europe/Brussels (UTC+1.0)
Stats Elevation 20 ft / 6 m (AMSL)
Location 51.090220° 2.652930°
Runways 1
Magnetic Variation 0.525° E

METAR

EBFN 160525Z AUTO 34013KT 9999 FEW015/// BKN054/// OVC076/// 05/03 Q1011 BLU

Decode

TAF

Not found

Destination Runways

ID Width Length Bearing (true) Bearing (mag) Surface Threshold Offset Overrun Length
11 115 ft / 35 m 8,754 ft / 2,668 m 108.24° 107.71° Asphalt 312 ft / 95 m 3 ft / 1 m
29 115 ft / 35 m 8,754 ft / 2,668 m 288.26° 287.73° Asphalt 325 ft / 99 m 0 ft / 0 m

Popular Alternatives